Terminal Aerodrome Forecast
Issued by NWS Pocatello, ID

Home | Current Version | Previous Version | Text Only | Print | Product List | Glossary On
Versions: 1 2 3 4 5 6 7 8 9 10 11 12 13 14 15 16
647
FTUS45 KPIH 231720
TAFIDA
TAF
KIDA 231720Z 2318/2418 VRB05KT P6SM VCSH FEW012 SCT070 BKN120
     FM240200 22007KT P6SM FEW040
     FM240800 VRB05KT P6SM SCT010=

USA.gov is the U.S. government's official web portal to all federal, state and local government web resources and services.